sensor_id;sensor_type;location;lat;lon;timestamp;pressure;altitude;pressure_sealevel;temperature;humidity
75747;BME280;64363;52.198;21.020;2023-05-24T00:01:01;99886.38;;;19.05;47.19
75747;BME280;64363;52.198;21.020;2023-05-24T00:03:27;99893.00;;;19.01;47.53
75747;BME280;64363;52.198;21.020;2023-05-24T00:06:02;99884.91;;;18.88;47.74
75747;BME280;64363;52.198;21.020;2023-05-24T00:08:34;99879.91;;;18.95;47.07
75747;BME280;64363;52.198;21.020;2023-05-24T00:11:00;99886.28;;;18.94;47.16
75747;BME280;64363;52.198;21.020;2023-05-24T00:13:25;99883.09;;;18.89;47.70
75747;BME280;64363;52.198;21.020;2023-05-24T00:15:51;99883.09;;;18.89;47.89
75747;BME280;64363;52.198;21.020;2023-05-24T00:18:17;99880.25;;;18.90;47.46
75747;BME280;64363;52.198;21.020;2023-05-24T00:20:43;99874.88;;;18.78;47.74
75747;BME280;64363;52.198;21.020;2023-05-24T00:23:09;99873.59;;;18.83;47.71
75747;BME280;64363;52.198;21.020;2023-05-24T00:25:35;99869.47;;;18.78;47.87
75747;BME280;64363;52.198;21.020;2023-05-24T00:28:01;99869.63;;;18.76;47.33
75747;BME280;64363;52.198;21.020;2023-05-24T00:30:27;99864.22;;;18.76;47.54
75747;BME280;64363;52.198;21.020;2023-05-24T00:32:52;99867.53;;;18.80;47.35
75747;BME280;64363;52.198;21.020;2023-05-24T00:35:18;99872.94;;;18.80;47.21
75747;BME280;64363;52.198;21.020;2023-05-24T00:37:50;99860.41;;;18.79;47.08
75747;BME280;64363;52.198;21.020;2023-05-24T00:40:30;99861.28;;;18.79;47.20
75747;BME280;64363;52.198;21.020;2023-05-24T00:42:55;99869.72;;;18.75;47.52
75747;BME280;64363;52.198;21.020;2023-05-24T00:45:21;99852.63;;;18.74;47.11
75747;BME280;64363;52.198;21.020;2023-05-24T00:47:47;99865.38;;;18.85;46.81
75747;BME280;64363;52.198;21.020;2023-05-24T00:50:12;99860.84;;;18.85;46.73
75747;BME280;64363;52.198;21.020;2023-05-24T00:52:41;99862.34;;;18.89;46.55
75747;BME280;64363;52.198;21.020;2023-05-24T00:55:08;99857.28;;;18.85;47.05
75747;BME280;64363;52.198;21.020;2023-05-24T00:57:39;99858.69;;;18.78;47.00
75747;BME280;64363;52.198;21.020;2023-05-24T01:00:06;99869.47;;;18.78;46.42
75747;BME280;64363;52.198;21.020;2023-05-24T01:02:32;99861.19;;;18.81;46.44
75747;BME280;64363;52.198;21.020;2023-05-24T01:04:58;99862.16;;;18.80;46.30
75747;BME280;64363;52.198;21.020;2023-05-24T01:07:53;99864.94;;;18.78;46.77
75747;BME280;64363;52.198;21.020;2023-05-24T01:10:29;99857.84;;;18.77;46.56
75747;BME280;64363;52.198;21.020;2023-05-24T01:15:56;99855.91;;;18.66;47.92
75747;BME280;64363;52.198;21.020;2023-05-24T01:18:39;99861.63;;;18.75;47.07
75747;BME280;64363;52.198;21.020;2023-05-24T01:26:29;99863.69;;;18.71;46.49
75747;BME280;64363;52.198;21.020;2023-05-24T01:28:56;99857.22;;;18.74;46.36
75747;BME280;64363;52.198;21.020;2023-05-24T01:31:25;99866.03;;;18.76;46.23
75747;BME280;64363;52.198;21.020;2023-05-24T01:33:50;99876.22;;;18.72;45.84
75747;BME280;64363;52.198;21.020;2023-05-24T01:36:16;99874.63;;;18.69;46.69
75747;BME280;64363;52.198;21.020;2023-05-24T01:38:49;99877.50;;;18.66;46.45
75747;BME280;64363;52.198;21.020;2023-05-24T01:49:49;99879.47;;;18.64;47.19
75747;BME280;64363;52.198;21.020;2023-05-24T01:52:18;99873.31;;;18.62;46.90
75747;BME280;64363;52.198;21.020;2023-05-24T01:54:47;99871.94;;;18.57;46.95
75747;BME280;64363;52.198;21.020;2023-05-24T01:57:18;99875.59;;;18.56;47.25
75747;BME280;64363;52.198;21.020;2023-05-24T01:59:44;99873.19;;;18.51;47.04
75747;BME280;64363;52.198;21.020;2023-05-24T02:02:11;99877.34;;;18.57;46.80
75747;BME280;64363;52.198;21.020;2023-05-24T02:04:36;99863.38;;;18.50;47.09
75747;BME280;64363;52.198;21.020;2023-05-24T02:07:09;99878.38;;;18.42;47.69
75747;BME280;64363;52.198;21.020;2023-05-24T02:09:34;99871.69;;;18.35;47.60
75747;BME280;64363;52.198;21.020;2023-05-24T02:12:00;99876.47;;;18.31;48.25
75747;BME280;64363;52.198;21.020;2023-05-24T02:14:26;99877.34;;;18.19;48.67
75747;BME280;64363;52.198;21.020;2023-05-24T02:16:52;99873.66;;;18.20;48.96
75747;BME280;64363;52.198;21.020;2023-05-24T02:19:23;99880.78;;;18.08;49.52
75747;BME280;64363;52.198;21.020;2023-05-24T02:21:49;99873.56;;;18.09;49.78
75747;BME280;64363;52.198;21.020;2023-05-24T02:24:16;99882.84;;;18.05;49.88
75747;BME280;64363;52.198;21.020;2023-05-24T02:26:43;99883.19;;;18.13;48.83
75747;BME280;64363;52.198;21.020;2023-05-24T02:29:09;99872.81;;;18.07;48.87
75747;BME280;64363;52.198;21.020;2023-05-24T02:31:35;99886.06;;;18.10;48.88
75747;BME280;64363;52.198;21.020;2023-05-24T02:34:01;99888.56;;;18.13;48.94
75747;BME280;64363;52.198;21.020;2023-05-24T02:36:27;99887.06;;;18.09;48.93
75747;BME280;64363;52.198;21.020;2023-05-24T02:38:59;99878.84;;;17.98;48.60
75747;BME280;64363;52.198;21.020;2023-05-24T02:41:38;99882.09;;;18.03;49.04
75747;BME280;64363;52.198;21.020;2023-05-24T02:44:05;99865.25;;;17.99;49.21
75747;BME280;64363;52.198;21.020;2023-05-24T02:46:31;99874.94;;;18.02;49.22
75747;BME280;64363;52.198;21.020;2023-05-24T02:48:57;99880.16;;;18.05;49.07
75747;BME280;64363;52.198;21.020;2023-05-24T02:51:23;99891.13;;;18.02;49.13
75747;BME280;64363;52.198;21.020;2023-05-24T02:53:49;99883.72;;;17.93;49.50
75747;BME280;64363;52.198;21.020;2023-05-24T02:56:15;99885.63;;;17.91;49.14
75747;BME280;64363;52.198;21.020;2023-05-24T02:58:43;99884.75;;;17.90;49.55
75747;BME280;64363;52.198;21.020;2023-05-24T03:01:10;99886.19;;;17.96;49.25
75747;BME280;64363;52.198;21.020;2023-05-24T03:03:39;99870.22;;;17.93;48.72
75747;BME280;64363;52.198;21.020;2023-05-24T03:06:06;99886.09;;;17.97;49.38
75747;BME280;64363;52.198;21.020;2023-05-24T03:08:39;99877.88;;;17.99;49.36
75747;BME280;64363;52.198;21.020;2023-05-24T03:11:05;99883.81;;;17.91;48.77
75747;BME280;64363;52.198;21.020;2023-05-24T03:13:30;99883.59;;;17.94;49.00
75747;BME280;64363;52.198;21.020;2023-05-24T03:15:56;99888.97;;;17.94;49.21
75747;BME280;64363;52.198;21.020;2023-05-24T03:18:25;99900.09;;;17.90;49.62
75747;BME280;64363;52.198;21.020;2023-05-24T03:20:50;99901.06;;;17.89;49.04
75747;BME280;64363;52.198;21.020;2023-05-24T03:23:16;99893.50;;;17.94;48.83
75747;BME280;64363;52.198;21.020;2023-05-24T03:25:42;99897.06;;;17.94;49.22
75747;BME280;64363;52.198;21.020;2023-05-24T03:28:07;99893.31;;;17.97;48.30
75747;BME280;64363;52.198;21.020;2023-05-24T03:30:33;99898.72;;;17.97;48.52
75747;BME280;64363;52.198;21.020;2023-05-24T03:32:59;99904.63;;;18.02;48.15
75747;BME280;64363;52.198;21.020;2023-05-24T03:35:25;99901.50;;;18.08;48.15
75747;BME280;64363;52.198;21.020;2023-05-24T03:37:57;99896.03;;;18.09;47.91
75747;BME280;64363;52.198;21.020;2023-05-24T03:40:36;99903.66;;;18.03;48.18
75747;BME280;64363;52.198;21.020;2023-05-24T03:43:02;99904.31;;;18.06;48.07
75747;BME280;64363;52.198;21.020;2023-05-24T03:45:28;99895.25;;;17.95;48.00
75747;BME280;64363;52.198;21.020;2023-05-24T03:47:54;99900.75;;;18.06;47.78
75747;BME280;64363;52.198;21.020;2023-05-24T03:50:20;99904.13;;;18.09;47.27
75747;BME280;64363;52.198;21.020;2023-05-24T03:52:45;99897.41;;;18.15;46.75
75747;BME280;64363;52.198;21.020;2023-05-24T03:55:12;99907.47;;;18.13;46.81
75747;BME280;64363;52.198;21.020;2023-05-24T03:57:39;99907.78;;;18.21;46.43
75747;BME280;64363;52.198;21.020;2023-05-24T04:00:13;99909.72;;;18.19;46.43
75747;BME280;64363;52.198;21.020;2023-05-24T04:02:39;99912.09;;;18.23;46.20
75747;BME280;64363;52.198;21.020;2023-05-24T04:05:08;99914.78;;;18.23;46.31
75747;BME280;64363;52.198;21.020;2023-05-24T04:07:36;99915.88;;;18.21;46.55
75747;BME280;64363;52.198;21.020;2023-05-24T04:10:03;99913.38;;;18.31;46.86
75747;BME280;64363;52.198;21.020;2023-05-24T04:12:29;99914.03;;;18.34;46.95
75747;BME280;64363;52.198;21.020;2023-05-24T04:15:03;99916.72;;;18.34;47.16
75747;BME280;64363;52.198;21.020;2023-05-24T04:17:29;99899.56;;;18.22;46.89
75747;BME280;64363;52.198;21.020;2023-05-24T04:19:59;99920.84;;;18.27;46.79
75747;BME280;64363;52.198;21.020;2023-05-24T04:22:25;99923.75;;;18.24;46.71
75747;BME280;64363;52.198;21.020;2023-05-24T04:24:51;99931.09;;;18.22;46.56
75747;BME280;64363;52.198;21.020;2023-05-24T04:27:17;99936.94;;;18.41;45.86
75747;BME280;64363;52.198;21.020;2023-05-24T04:29:43;99933.91;;;18.33;46.37
75747;BME280;64363;52.198;21.020;2023-05-24T04:32:10;99935.84;;;18.31;46.25
75747;BME280;64363;52.198;21.020;2023-05-24T04:34:39;99933.69;;;18.36;46.32
75747;BME280;64363;52.198;21.020;2023-05-24T04:37:07;99947.50;;;18.44;46.09
75747;BME280;64363;52.198;21.020;2023-05-24T04:39:39;99939.63;;;18.41;46.12
75747;BME280;64363;52.198;21.020;2023-05-24T04:42:12;99942.75;;;18.35;46.49
75747;BME280;64363;52.198;21.020;2023-05-24T04:44:41;99936.72;;;18.32;47.24
75747;BME280;64363;52.198;21.020;2023-05-24T04:47:07;99943.63;;;18.48;45.95
75747;BME280;64363;52.198;21.020;2023-05-24T04:49:33;99939.31;;;18.58;46.20
75747;BME280;64363;52.198;21.020;2023-05-24T04:51:58;99948.16;;;18.35;47.02
75747;BME280;64363;52.198;21.020;2023-05-24T04:54:24;99954.50;;;18.34;47.53
75747;BME280;64363;52.198;21.020;2023-05-24T04:56:50;99950.53;;;18.27;47.51
75747;BME280;64363;52.198;21.020;2023-05-24T04:59:16;99951.72;;;18.36;47.83
75747;BME280;64363;52.198;21.020;2023-05-24T05:01:42;99948.69;;;18.40;47.52
75747;BME280;64363;52.198;21.020;2023-05-24T05:04:08;99958.94;;;18.35;47.57
75747;BME280;64363;52.198;21.020;2023-05-24T05:06:41;99964.78;;;18.42;47.36
75747;BME280;64363;52.198;21.020;2023-05-24T05:09:09;99961.38;;;18.52;47.09
75747;BME280;64363;52.198;21.020;2023-05-24T05:11:37;99973.13;;;18.64;47.16
75747;BME280;64363;52.198;21.020;2023-05-24T05:14:03;99971.31;;;18.64;46.66
75747;BME280;64363;52.198;21.020;2023-05-24T05:16:29;99968.47;;;18.66;46.74
75747;BME280;64363;52.198;21.020;2023-05-24T05:18:55;99967.19;;;18.72;47.17
75747;BME280;64363;52.198;21.020;2023-05-24T05:21:20;99967.19;;;18.72;47.43
75747;BME280;64363;52.198;21.020;2023-05-24T05:23:46;99970.28;;;18.91;46.35
75747;BME280;64363;52.198;21.020;2023-05-24T05:26:12;99967.16;;;18.84;46.79
75747;BME280;64363;52.198;21.020;2023-05-24T05:28:37;99972.56;;;18.97;46.48
75747;BME280;64363;52.198;21.020;2023-05-24T05:31:05;99975.97;;;19.11;45.59
75747;BME280;64363;52.198;21.020;2023-05-24T05:33:31;99977.66;;;19.25;45.85
75747;BME280;64363;52.198;21.020;2023-05-24T05:35:57;99968.16;;;19.20;45.93
75747;BME280;64363;52.198;21.020;2023-05-24T05:38:33;99980.13;;;19.28;45.84
75747;BME280;64363;52.198;21.020;2023-05-24T05:41:12;99982.63;;;19.31;46.16
75747;BME280;64363;52.198;21.020;2023-05-24T05:43:38;99982.84;;;19.28;46.86
75747;BME280;64363;52.198;21.020;2023-05-24T05:46:03;99982.56;;;19.56;45.32
75747;BME280;64363;52.198;21.020;2023-05-24T05:48:29;99975.59;;;19.65;45.23
75747;BME280;64363;52.198;21.020;2023-05-24T05:50:55;99977.47;;;19.76;45.06
75747;BME280;64363;52.198;21.020;2023-05-24T05:53:21;99984.88;;;19.74;45.33
75747;BME280;64363;52.198;21.020;2023-05-24T05:55:54;99997.97;;;19.67;45.79
75747;BME280;64363;52.198;21.020;2023-05-24T05:58:20;99990.00;;;19.66;45.74
75747;BME280;64363;52.198;21.020;2023-05-24T06:00:46;99993.44;;;19.68;45.48
75747;BME280;64363;52.198;21.020;2023-05-24T06:03:12;99986.63;;;19.62;45.32
75747;BME280;64363;52.198;21.020;2023-05-24T06:05:37;99998.44;;;19.85;45.07
75747;BME280;64363;52.198;21.020;2023-05-24T06:08:09;99992.69;;;19.89;44.97
75747;BME280;64363;52.198;21.020;2023-05-24T06:10:35;99996.16;;;20.02;44.93
75747;BME280;64363;52.198;21.020;2023-05-24T06:13:02;99995.94;;;20.29;44.11
75747;BME280;64363;52.198;21.020;2023-05-24T06:15:28;100007.75;;;20.39;43.76
75747;BME280;64363;52.198;21.020;2023-05-24T06:17:54;100008.72;;;20.38;44.43
75747;BME280;64363;52.198;21.020;2023-05-24T06:20:19;100006.88;;;20.39;44.40
75747;BME280;64363;52.198;21.020;2023-05-24T06:22:46;100015.41;;;20.45;44.36
75747;BME280;64363;52.198;21.020;2023-05-24T06:25:14;100009.47;;;20.29;44.44
75747;BME280;64363;52.198;21.020;2023-05-24T06:27:43;100020.22;;;20.53;43.72
75747;BME280;64363;52.198;21.020;2023-05-24T06:30:09;100022.66;;;20.34;44.69
75747;BME280;64363;52.198;21.020;2023-05-24T06:32:35;100016.66;;;20.52;44.81
75747;BME280;64363;52.198;21.020;2023-05-24T06:35:02;100017.78;;;20.83;44.52
75747;BME280;64363;52.198;21.020;2023-05-24T06:37:35;100018.44;;;20.98;43.58
75747;BME280;64363;52.198;21.020;2023-05-24T06:40:14;100019.41;;;20.97;43.69
75747;BME280;64363;52.198;21.020;2023-05-24T06:42:40;100031.84;;;20.99;43.50
75747;BME280;64363;52.198;21.020;2023-05-24T06:45:06;100031.66;;;21.14;43.00
75747;BME280;64363;52.198;21.020;2023-05-24T06:47:32;100036.56;;;21.31;42.21
75747;BME280;64363;52.198;21.020;2023-05-24T06:49:58;100043.81;;;21.53;41.35
75747;BME280;64363;52.198;21.020;2023-05-24T06:52:25;100036.78;;;21.39;41.61
75747;BME280;64363;52.198;21.020;2023-05-24T06:54:51;100047.00;;;21.46;41.61
75747;BME280;64363;52.198;21.020;2023-05-24T06:57:24;100051.84;;;21.54;41.49
75747;BME280;64363;52.198;21.020;2023-05-24T06:59:51;100050.63;;;21.36;42.06
75747;BME280;64363;52.198;21.020;2023-05-24T07:02:17;100054.69;;;21.41;42.13
75747;BME280;64363;52.198;21.020;2023-05-24T07:04:42;100053.81;;;21.52;41.85
75747;BME280;64363;52.198;21.020;2023-05-24T07:07:14;100058.72;;;21.69;41.69
75747;BME280;64363;52.198;21.020;2023-05-24T07:09:40;100055.13;;;21.69;41.56
75747;BME280;64363;52.198;21.020;2023-05-24T07:12:07;100055.84;;;21.93;40.92
75747;BME280;64363;52.198;21.020;2023-05-24T07:14:32;100058.44;;;21.72;41.36
75747;BME280;64363;52.198;21.020;2023-05-24T07:16:58;100062.91;;;22.16;40.51
75747;BME280;64363;52.198;21.020;2023-05-24T07:19:24;100052.59;;;22.52;39.06
75747;BME280;64363;52.198;21.020;2023-05-24T07:21:54;100060.28;;;22.78;38.37
75747;BME280;64363;52.198;21.020;2023-05-24T07:24:21;100068.06;;;22.51;38.45
75747;BME280;64363;52.198;21.020;2023-05-24T07:26:48;100063.31;;;22.85;38.18
75747;BME280;64363;52.198;21.020;2023-05-24T07:29:14;100075.66;;;23.19;37.36
75747;BME280;64363;52.198;21.020;2023-05-24T07:31:40;100069.59;;;23.37;37.52
75747;BME280;64363;52.198;21.020;2023-05-24T07:34:05;100067.44;;;23.40;37.16
75747;BME280;64363;52.198;21.020;2023-05-24T07:36:32;100081.31;;;23.67;37.40
75747;BME280;64363;52.198;21.020;2023-05-24T07:39:03;100085.84;;;23.97;36.69
75747;BME280;64363;52.198;21.020;2023-05-24T07:41:32;100082.19;;;24.17;35.93
75747;BME280;64363;52.198;21.020;2023-05-24T07:43:58;100087.72;;;23.87;37.21
75747;BME280;64363;52.198;21.020;2023-05-24T07:46:30;100095.59;;;24.00;36.86
75747;BME280;64363;52.198;21.020;2023-05-24T07:48:57;100091.13;;;23.89;36.82
75747;BME280;64363;52.198;21.020;2023-05-24T07:51:22;100095.88;;;22.96;38.82
75747;BME280;64363;52.198;21.020;2023-05-24T07:53:48;100093.69;;;22.69;39.51
75747;BME280;64363;52.198;21.020;2023-05-24T07:56:14;100097.38;;;23.40;38.23
75747;BME280;64363;52.198;21.020;2023-05-24T07:58:46;100090.63;;;23.65;37.44
75747;BME280;64363;52.198;21.020;2023-05-24T08:01:13;100091.13;;;23.89;37.98
75747;BME280;64363;52.198;21.020;2023-05-24T08:03:39;100094.66;;;24.30;36.88
75747;BME280;64363;52.198;21.020;2023-05-24T08:06:05;100095.91;;;24.06;37.55
75747;BME280;64363;52.198;21.020;2023-05-24T08:08:37;100095.81;;;24.37;36.73
75747;BME280;64363;52.198;21.020;2023-05-24T08:11:04;100096.66;;;24.56;36.23
75747;BME280;64363;52.198;21.020;2023-05-24T08:13:30;100095.81;;;24.65;36.14
75747;BME280;64363;52.198;21.020;2023-05-24T08:15:56;100100.84;;;24.89;36.06
75747;BME280;64363;52.198;21.020;2023-05-24T08:18:22;100097.81;;;24.73;36.43
75747;BME280;64363;52.198;21.020;2023-05-24T08:20:48;100099.97;;;24.60;36.47
75747;BME280;64363;52.198;21.020;2023-05-24T08:23:14;100110.00;;;24.79;35.69
75747;BME280;64363;52.198;21.020;2023-05-24T08:25:40;100102.63;;;25.17;35.06
75747;BME280;64363;52.198;21.020;2023-05-24T08:28:05;100112.72;;;25.07;35.44
75747;BME280;64363;52.198;21.020;2023-05-24T08:30:32;100108.91;;;25.28;35.49
75747;BME280;64363;52.198;21.020;2023-05-24T08:32:57;100111.22;;;25.69;34.48
75747;BME280;64363;52.198;21.020;2023-05-24T08:35:23;100115.69;;;25.97;33.58
75747;BME280;64363;52.198;21.020;2023-05-24T08:37:55;100119.50;;;26.04;33.58
75747;BME280;64363;52.198;21.020;2023-05-24T08:40:35;100115.66;;;26.25;32.55
75747;BME280;64363;52.198;21.020;2023-05-24T08:43:01;100120.13;;;25.98;32.79
75747;BME280;64363;52.198;21.020;2023-05-24T08:45:29;100112.16;;;25.87;33.10
75747;BME280;64363;52.198;21.020;2023-05-24T08:47:56;100117.97;;;26.47;32.36
75747;BME280;64363;52.198;21.020;2023-05-24T08:50:23;100121.50;;;27.00;30.76
75747;BME280;64363;52.198;21.020;2023-05-24T08:52:50;100110.06;;;26.44;31.79
75747;BME280;64363;52.198;21.020;2023-05-24T08:55:16;100129.69;;;28.78;28.92
75747;BME280;64363;52.198;21.020;2023-05-24T08:57:49;100118.53;;;31.50;24.83
75747;BME280;64363;52.198;21.020;2023-05-24T09:00:16;100114.03;;;33.78;22.06
75747;BME280;64363;52.198;21.020;2023-05-24T09:02:43;100112.94;;;33.79;22.19
75747;BME280;64363;52.198;21.020;2023-05-24T09:05:13;100121.34;;;33.99;21.38
75747;BME280;64363;52.198;21.020;2023-05-24T09:07:42;100129.41;;;33.59;22.13
75747;BME280;64363;52.198;21.020;2023-05-24T09:10:09;100125.69;;;34.75;20.81
75747;BME280;64363;52.198;21.020;2023-05-24T09:12:36;100119.97;;;33.47;21.25
75747;BME280;64363;52.198;21.020;2023-05-24T09:15:03;100139.47;;;34.49;20.83
75747;BME280;64363;52.198;21.020;2023-05-24T09:17:35;100130.00;;;35.10;20.46
75747;BME280;64363;52.198;21.020;2023-05-24T09:20:02;100121.34;;;36.04;19.48
75747;BME280;64363;52.198;21.020;2023-05-24T09:22:31;100133.44;;;35.26;20.65
75747;BME280;64363;52.198;21.020;2023-05-24T09:25:02;100128.25;;;34.83;20.77
75747;BME280;64363;52.198;21.020;2023-05-24T09:27:30;100131.25;;;32.39;22.99
75747;BME280;64363;52.198;21.020;2023-05-24T09:29:57;100134.50;;;32.28;23.14
75747;BME280;64363;52.198;21.020;2023-05-24T09:32:23;100140.41;;;31.52;24.71
75747;BME280;64363;52.198;21.020;2023-05-24T09:34:53;100146.44;;;30.11;26.42
75747;BME280;64363;52.198;21.020;2023-05-24T09:37:20;100150.44;;;29.13;28.50
75747;BME280;64363;52.198;21.020;2023-05-24T09:39:54;100139.00;;;27.51;30.85
75747;BME280;64363;52.198;21.020;2023-05-24T09:42:23;100149.38;;;28.07;30.38
75747;BME280;64363;52.198;21.020;2023-05-24T09:45:03;100143.78;;;28.25;29.94
75747;BME280;64363;52.198;21.020;2023-05-24T09:47:34;100146.38;;;28.26;29.62
75747;BME280;64363;52.198;21.020;2023-05-24T09:50:01;100148.41;;;27.82;29.87
75747;BME280;64363;52.198;21.020;2023-05-24T09:52:27;100143.19;;;27.63;30.18
75747;BME280;64363;52.198;21.020;2023-05-24T09:54:53;100147.75;;;27.55;30.45
75747;BME280;64363;52.198;21.020;2023-05-24T09:57:19;100146.69;;;27.81;30.36
75747;BME280;64363;52.198;21.020;2023-05-24T09:59:48;100144.97;;;27.72;30.49
75747;BME280;64363;52.198;21.020;2023-05-24T10:02:15;100145.25;;;27.69;30.49
75747;BME280;64363;52.198;21.020;2023-05-24T10:04:58;100136.78;;;27.80;30.76
75747;BME280;64363;52.198;21.020;2023-05-24T10:07:24;100148.69;;;28.05;30.24
75747;BME280;64363;52.198;21.020;2023-05-24T10:09:50;100147.44;;;27.91;31.00
75747;BME280;64363;52.198;21.020;2023-05-24T10:12:22;100154.69;;;26.80;32.51
75747;BME280;64363;52.198;21.020;2023-05-24T10:14:50;100155.69;;;26.79;32.60
75747;BME280;64363;52.198;21.020;2023-05-24T10:17:16;100161.63;;;26.39;33.61
75747;BME280;64363;52.198;21.020;2023-05-24T10:19:42;100157.56;;;26.43;33.65
75747;BME280;64363;52.198;21.020;2023-05-24T10:22:09;100156.25;;;25.65;35.22
75747;BME280;64363;52.198;21.020;2023-05-24T10:24:38;100168.22;;;25.54;36.04
75747;BME280;64363;52.198;21.020;2023-05-24T10:27:08;100158.00;;;25.56;36.36
75747;BME280;64363;52.198;21.020;2023-05-24T10:30:04;100157.34;;;25.26;37.15
75747;BME280;64363;52.198;21.020;2023-05-24T10:32:34;100151.13;;;25.43;36.62
75747;BME280;64363;52.198;21.020;2023-05-24T10:35:04;100154.56;;;25.45;36.64
75747;BME280;64363;52.198;21.020;2023-05-24T10:37:30;100165.97;;;25.77;35.54
75747;BME280;64363;52.198;21.020;2023-05-24T10:39:58;100150.09;;;25.90;35.09
75747;BME280;64363;52.198;21.020;2023-05-24T10:42:34;100164.38;;;26.12;34.93
75747;BME280;64363;52.198;21.020;2023-05-24T10:47:48;100152.13;;;26.16;35.54
75747;BME280;64363;52.198;21.020;2023-05-24T10:50:18;100167.38;;;25.81;35.86
75747;BME280;64363;52.198;21.020;2023-05-24T10:52:44;100166.56;;;25.71;36.97
75747;BME280;64363;52.198;21.020;2023-05-24T10:55:10;100160.38;;;25.23;36.40
75747;BME280;64363;52.198;21.020;2023-05-24T10:57:38;100166.69;;;25.13;36.80
75747;BME280;64363;52.198;21.020;2023-05-24T11:03:07;100176.31;;;25.08;37.46
75747;BME280;64363;52.198;21.020;2023-05-24T11:08:12;100176.44;;;25.26;37.48
75747;BME280;64363;52.198;21.020;2023-05-24T11:10:38;100168.94;;;25.47;37.78
75747;BME280;64363;52.198;21.020;2023-05-24T11:13:07;100170.31;;;25.70;36.25
75747;BME280;64363;52.198;21.020;2023-05-24T11:15:33;100176.53;;;25.53;36.63
75747;BME280;64363;52.198;21.020;2023-05-24T11:20:34;100164.84;;;25.70;36.41
75747;BME280;64363;52.198;21.020;2023-05-24T11:23:06;100174.13;;;25.87;35.97
75747;BME280;64363;52.198;21.020;2023-05-24T11:25:40;100183.16;;;25.41;36.82
75747;BME280;64363;52.198;21.020;2023-05-24T11:28:09;100184.81;;;25.14;37.50
75747;BME280;64363;52.198;21.020;2023-05-24T11:30:43;100177.75;;;25.12;37.91
75747;BME280;64363;52.198;21.020;2023-05-24T11:33:20;100176.75;;;24.84;38.53
75747;BME280;64363;52.198;21.020;2023-05-24T11:35:51;100182.22;;;24.55;38.57
75747;BME280;64363;52.198;21.020;2023-05-24T11:38:24;100187.06;;;24.52;38.76
75747;BME280;64363;52.198;21.020;2023-05-24T11:41:03;100187.66;;;24.46;39.00
75747;BME280;64363;52.198;21.020;2023-05-24T11:43:29;100195.81;;;24.46;38.86
75747;BME280;64363;52.198;21.020;2023-05-24T11:45:55;100182.41;;;24.23;39.79
75747;BME280;64363;52.198;21.020;2023-05-24T11:48:21;100190.22;;;24.57;39.08
75747;BME280;64363;52.198;21.020;2023-05-24T11:50:47;100189.09;;;24.50;38.08
75747;BME280;64363;52.198;21.020;2023-05-24T11:53:17;100184.63;;;24.49;38.85
75747;BME280;64363;52.198;21.020;2023-05-24T11:55:43;100162.97;;;24.57;39.05
75747;BME280;64363;52.198;21.020;2023-05-24T11:58:20;100173.59;;;24.50;38.86
75747;BME280;64363;52.198;21.020;2023-05-24T12:00:48;100176.88;;;24.35;39.07
75747;BME280;64363;52.198;21.020;2023-05-24T12:03:13;100184.06;;;25.12;38.00
75747;BME280;64363;52.198;21.020;2023-05-24T12:05:39;100193.66;;;25.36;37.95
75747;BME280;64363;52.198;21.020;2023-05-24T12:08:10;100189.22;;;25.91;36.92
75747;BME280;64363;52.198;21.020;2023-05-24T12:10:44;100183.63;;;25.83;36.08
75747;BME280;64363;52.198;21.020;2023-05-24T12:13:24;100175.53;;;26.18;35.89
75747;BME280;64363;52.198;21.020;2023-05-24T12:15:52;100179.75;;;26.58;35.33
75747;BME280;64363;52.198;21.020;2023-05-24T12:18:22;100182.41;;;26.49;34.93
75747;BME280;64363;52.198;21.020;2023-05-24T12:20:49;100176.78;;;26.69;35.15
75747;BME280;64363;52.198;21.020;2023-05-24T12:23:15;100180.72;;;27.02;34.52
75747;BME280;64363;52.198;21.020;2023-05-24T12:25:42;100177.72;;;27.13;34.35
75747;BME280;64363;52.198;21.020;2023-05-24T12:28:08;100167.13;;;27.61;33.78
75747;BME280;64363;52.198;21.020;2023-05-24T12:30:36;100168.84;;;27.88;33.15
75747;BME280;64363;52.198;21.020;2023-05-24T12:33:02;100162.69;;;27.94;33.07
75747;BME280;64363;52.198;21.020;2023-05-24T12:35:28;100173.09;;;28.16;33.04
75747;BME280;64363;52.198;21.020;2023-05-24T12:37:59;100169.19;;;28.27;33.68
75747;BME280;64363;52.198;21.020;2023-05-24T12:40:32;100157.50;;;28.83;32.42
75747;BME280;64363;52.198;21.020;2023-05-24T12:42:58;100167.25;;;28.86;31.73
75747;BME280;64363;52.198;21.020;2023-05-24T12:45:24;100165.03;;;29.29;31.17
75747;BME280;64363;52.198;21.020;2023-05-24T12:47:52;100164.34;;;29.19;31.56
75747;BME280;64363;52.198;21.020;2023-05-24T12:50:19;100171.03;;;29.41;31.06
75747;BME280;64363;52.198;21.020;2023-05-24T12:52:45;100169.28;;;29.64;30.68
75747;BME280;64363;52.198;21.020;2023-05-24T12:55:20;100144.56;;;29.64;30.56
75747;BME280;64363;52.198;21.020;2023-05-24T12:57:46;100167.94;;;29.52;30.60
75747;BME280;64363;52.198;21.020;2023-05-24T13:00:26;100157.84;;;28.96;31.71
75747;BME280;64363;52.198;21.020;2023-05-24T13:02:55;100165.50;;;28.60;31.46
75747;BME280;64363;52.198;21.020;2023-05-24T13:05:27;100160.63;;;28.38;31.64
75747;BME280;64363;52.198;21.020;2023-05-24T13:07:53;100167.72;;;28.07;32.39
75747;BME280;64363;52.198;21.020;2023-05-24T13:10:21;100171.63;;;27.96;32.12
75747;BME280;64363;52.198;21.020;2023-05-24T13:12:47;100172.50;;;27.71;32.86
75747;BME280;64363;52.198;21.020;2023-05-24T13:15:13;100172.28;;;27.56;33.37
75747;BME280;64363;52.198;21.020;2023-05-24T13:17:42;100181.97;;;27.33;34.12